createdAt,value
2022-09-26T00:00:13.718Z,88.42
2022-09-26T00:02:40.145Z,88.60
2022-09-26T00:05:07.644Z,88.87
2022-09-26T00:07:34.145Z,88.85
2022-09-26T00:10:00.612Z,88.80
2022-09-26T00:12:27.033Z,89.00
2022-09-26T00:14:53.448Z,89.33
2022-09-26T00:17:19.885Z,89.39
2022-09-26T00:19:46.276Z,89.52
2022-09-26T00:22:12.707Z,89.35
2022-09-26T00:24:39.152Z,89.27
2022-09-26T00:27:05.564Z,89.44
2022-09-26T00:29:31.942Z,89.38
2022-09-26T00:31:58.368Z,89.92
2022-09-26T00:34:24.796Z,89.83
2022-09-26T00:36:52.748Z,90.18
2022-09-26T00:39:19.134Z,90.61
2022-09-26T00:41:45.733Z,90.94
2022-09-26T00:44:40.301Z,91.16
2022-09-26T00:47:31.287Z,91.12
2022-09-26T00:50:07.991Z,91.26
2022-09-26T00:52:45.074Z,91.29
2022-09-26T00:55:14.715Z,91.60
2022-09-26T00:57:49.833Z,91.57
2022-09-26T01:00:16.393Z,91.52
2022-09-26T01:02:45.195Z,91.39
2022-09-26T01:05:15.251Z,91.53
2022-09-26T01:07:41.725Z,91.35
2022-09-26T01:10:09.095Z,91.39
2022-09-26T01:12:37.439Z,91.24
2022-09-26T01:15:07.393Z,91.08
2022-09-26T01:17:33.976Z,90.98
2022-09-26T01:20:03.725Z,90.86
2022-09-26T01:22:33.223Z,90.25
2022-09-26T01:25:10.098Z,90.06
2022-09-26T01:27:48.608Z,90.21
2022-09-26T01:30:26.361Z,90.22
2022-09-26T01:33:18.822Z,90.14
2022-09-26T01:36:08.953Z,90.22
2022-09-26T01:38:38.215Z,90.21
2022-09-26T01:41:04.609Z,90.30
2022-09-26T01:43:45.807Z,90.58
2022-09-26T01:46:25.122Z,90.53
2022-09-26T01:48:58.799Z,90.70
2022-09-26T01:51:44.469Z,90.51
2022-09-26T01:54:18.041Z,90.81
2022-09-26T01:56:48.220Z,90.41
2022-09-26T01:59:34.893Z,90.27
2022-09-26T02:02:19.323Z,90.71
2022-09-26T02:04:52.450Z,90.49
2022-09-26T02:07:21.616Z,90.58
2022-09-26T02:09:53.824Z,90.51
2022-09-26T02:12:27.546Z,90.49
2022-09-26T02:14:58.244Z,90.10
2022-09-26T02:17:35.598Z,90.46
2022-09-26T02:20:15.198Z,90.35
2022-09-26T02:22:41.888Z,90.38
2022-09-26T02:25:09.109Z,90.66
2022-09-26T02:27:35.649Z,90.63
2022-09-26T02:30:02.082Z,90.91
2022-09-26T02:32:31.733Z,90.79
2022-09-26T02:34:59.786Z,91.04
2022-09-26T02:37:28.821Z,90.91
2022-09-26T02:39:56.148Z,90.90
2022-09-26T02:42:47.643Z,90.88
2022-09-26T02:45:35.401Z,91.21
2022-09-26T02:48:26.337Z,90.98
2022-09-26T02:50:56.929Z,91.05
2022-09-26T02:53:55.796Z,90.77
2022-09-26T02:56:28.246Z,90.99
2022-09-26T02:59:03.810Z,91.04
2022-09-26T03:01:42.752Z,90.85
2022-09-26T03:04:20.833Z,91.11
2022-09-26T03:06:51.361Z,91.10
2022-09-26T03:09:20.602Z,91.05
2022-09-26T03:11:48.162Z,90.87
2022-09-26T03:14:16.869Z,91.06
2022-09-26T03:16:45.235Z,90.76
2022-09-26T03:19:22.435Z,91.02
2022-09-26T03:21:48.972Z,90.69
2022-09-26T03:24:15.462Z,90.97
2022-09-26T03:26:42.667Z,90.51
2022-09-26T03:29:09.173Z,90.45
2022-09-26T03:31:35.754Z,90.19
2022-09-26T03:34:02.330Z,90.05
2022-09-26T03:36:29.114Z,89.71
2022-09-26T03:38:55.598Z,89.74
2022-09-26T03:41:23.016Z,89.57
2022-09-26T03:43:49.580Z,89.17
2022-09-26T03:46:16.189Z,88.86
2022-09-26T03:48:43.202Z,88.73
2022-09-26T03:51:13.266Z,88.41
2022-09-26T03:53:42.379Z,88.46
2022-09-26T03:56:11.532Z,87.87
2022-09-26T03:58:38.580Z,87.26
2022-09-26T04:01:18.146Z,87.25
2022-09-26T04:03:50.255Z,87.29
2022-09-26T04:06:20.207Z,86.76
2022-09-26T04:08:49.306Z,86.83
2022-09-26T04:11:19.211Z,86.61
2022-09-26T04:13:51.826Z,86.61
2022-09-26T04:16:20.650Z,86.25
2022-09-26T04:18:47.951Z,86.02
2022-09-26T04:21:14.693Z,86.46
2022-09-26T04:23:42.976Z,86.06
2022-09-26T04:26:20.168Z,86.10
2022-09-26T04:28:50.884Z,85.95
2022-09-26T04:31:17.785Z,85.27
2022-09-26T04:33:45.137Z,85.11
2022-09-26T04:36:13.626Z,84.94
2022-09-26T04:38:41.128Z,85.02
2022-09-26T04:41:10.401Z,84.68
2022-09-26T04:43:37.574Z,84.02
2022-09-26T04:46:09.380Z,84.39
2022-09-26T04:48:36.255Z,84.29
2022-09-26T04:51:12.660Z,84.20
2022-09-26T04:53:40.308Z,83.98
2022-09-26T04:56:09.433Z,83.70
2022-09-26T04:58:37.875Z,83.89
2022-09-26T05:01:13.514Z,83.21
2022-09-26T05:03:41.932Z,83.72
2022-09-26T05:06:10.112Z,83.47
2022-09-26T05:08:38.323Z,83.83
2022-09-26T05:11:05.097Z,83.75
2022-09-26T05:13:31.545Z,83.98
2022-09-26T05:16:02.925Z,83.77
2022-09-26T05:18:29.843Z,83.59
2022-09-26T05:20:57.655Z,83.90
2022-09-26T05:23:45.423Z,83.88
2022-09-26T05:26:37.302Z,84.08
2022-09-26T05:29:08.374Z,83.94
2022-09-26T05:31:39.467Z,83.87
2022-09-26T05:34:19.490Z,83.73
2022-09-26T05:36:46.769Z,84.14
2022-09-26T05:39:31.779Z,84.06
2022-09-26T05:41:59.314Z,84.37
2022-09-26T05:44:27.328Z,83.83
2022-09-26T05:46:53.999Z,83.90
2022-09-26T05:49:20.502Z,84.28
2022-09-26T05:51:46.894Z,84.20
2022-09-26T05:54:13.801Z,83.76
2022-09-26T05:56:40.559Z,84.20
2022-09-26T05:59:07.178Z,84.44
2022-09-26T06:01:34.201Z,84.74
2022-09-26T06:04:02.783Z,84.87
2022-09-26T06:06:30.015Z,85.11
2022-09-26T06:08:56.817Z,85.15
2022-09-26T06:11:28.018Z,85.44
2022-09-26T06:13:55.762Z,85.58
2022-09-26T06:16:22.328Z,85.21
2022-09-26T06:18:50.964Z,85.41
2022-09-26T06:21:18.891Z,85.28
2022-09-26T06:23:45.904Z,85.60
2022-09-26T06:26:18.256Z,85.54
2022-09-26T06:28:44.859Z,85.40
2022-09-26T06:31:13.491Z,85.26
2022-09-26T06:33:40.058Z,85.37
2022-09-26T06:36:08.809Z,85.34
2022-09-26T06:38:36.084Z,84.54
2022-09-26T06:41:03.175Z,85.38
2022-09-26T06:43:29.833Z,84.79
2022-09-26T06:45:56.221Z,84.87
2022-09-26T06:48:24.783Z,84.92
2022-09-26T06:50:53.195Z,84.71
2022-09-26T06:53:20.287Z,84.54
2022-09-26T06:55:46.750Z,84.47
2022-09-26T06:58:13.481Z,84.94
2022-09-26T07:00:40.545Z,84.68
2022-09-26T07:03:08.248Z,84.69
2022-09-26T07:05:35.098Z,84.27
2022-09-26T07:08:02.796Z,84.17
2022-09-26T07:10:34.669Z,83.80
2022-09-26T07:13:04.063Z,83.82
2022-09-26T07:15:33.024Z,83.81
2022-09-26T07:18:04.203Z,84.08
2022-09-26T07:20:33.662Z,83.67
2022-09-26T07:23:02.436Z,83.81
2022-09-26T07:25:31.224Z,83.82
2022-09-26T07:27:58.105Z,83.59
2022-09-26T07:30:24.908Z,83.29
2022-09-26T07:32:51.352Z,83.31
2022-09-26T07:35:17.816Z,83.59
2022-09-26T07:37:44.976Z,83.37
2022-09-26T07:40:12.102Z,83.59
2022-09-26T07:42:38.826Z,83.82
2022-09-26T07:45:28.906Z,83.46
2022-09-26T07:48:11.654Z,83.85
2022-09-26T07:50:38.106Z,83.62
2022-09-26T07:53:04.604Z,83.88
2022-09-26T07:55:31.081Z,83.87
2022-09-26T07:57:59.209Z,83.84
2022-09-26T08:00:26.413Z,83.76
2022-09-26T08:02:53.004Z,83.94
2022-09-26T08:05:24.555Z,83.61
2022-09-26T08:07:51.130Z,84.25
2022-09-26T08:10:22.114Z,83.89
2022-09-26T08:12:49.636Z,83.98
2022-09-26T08:15:16.714Z,84.11
2022-09-26T08:17:46.212Z,83.99
2022-09-26T08:20:12.965Z,83.96
2022-09-26T08:22:39.415Z,84.05
2022-09-26T08:25:07.226Z,83.68
2022-09-26T08:27:34.652Z,83.79
2022-09-26T08:30:04.814Z,83.47
2022-09-26T08:32:32.207Z,83.46
2022-09-26T08:34:58.772Z,83.42
2022-09-26T08:37:28.814Z,83.84
2022-09-26T08:39:55.247Z,84.35
2022-09-26T08:42:40.492Z,85.05
2022-09-26T08:45:57.009Z,85.38
2022-09-26T08:48:43.011Z,86.17
2022-09-26T08:51:16.766Z,87.13
2022-09-26T08:53:55.700Z,87.71
2022-09-26T08:56:34.141Z,88.24
2022-09-26T08:59:03.305Z,88.51
2022-09-26T09:01:35.150Z,88.96
2022-09-26T09:04:06.857Z,89.37
2022-09-26T09:06:34.927Z,89.37
2022-09-26T09:09:01.497Z,89.28
2022-09-26T09:11:40.113Z,89.71
2022-09-26T09:14:34.666Z,89.65
2022-09-26T09:17:16.920Z,89.91
2022-09-26T09:20:17.584Z,90.00
2022-09-26T09:23:18.122Z,90.00
2022-09-26T09:29:01.932Z,90.79
2022-09-26T09:31:34.464Z,90.84
2022-09-26T09:34:05.311Z,90.91
2022-09-26T09:36:41.969Z,91.50
2022-09-26T09:39:12.327Z,91.60
2022-09-26T09:41:50.227Z,91.63
2022-09-26T09:44:41.010Z,92.26
2022-09-26T09:47:16.321Z,92.07
2022-09-26T09:49:44.854Z,92.06
2022-09-26T09:52:20.164Z,91.75
2022-09-26T09:55:02.447Z,92.19
2022-09-26T09:57:55.409Z,92.44
2022-09-26T10:00:24.094Z,92.39
2022-09-26T10:03:19.109Z,92.45
2022-09-26T10:05:53.455Z,92.40
2022-09-26T10:08:25.448Z,92.45
2022-09-26T10:11:12.916Z,92.27
2022-09-26T10:13:42.963Z,91.62
2022-09-26T10:16:15.311Z,91.68
2022-09-26T10:19:04.172Z,91.29
2022-09-26T10:21:34.215Z,91.34
2022-09-26T10:24:04.751Z,91.37
2022-09-26T10:26:36.856Z,91.51
2022-09-26T10:29:38.253Z,90.88
2022-09-26T10:32:05.225Z,90.93
2022-09-26T10:34:38.069Z,91.25
2022-09-26T10:37:24.421Z,91.25
2022-09-26T10:40:15.157Z,91.61
2022-09-26T10:42:43.182Z,92.05
2022-09-26T10:45:20.271Z,92.07
2022-09-26T10:47:51.282Z,92.40
2022-09-26T10:50:23.345Z,92.48
2022-09-26T10:52:56.075Z,92.79
2022-09-26T10:55:32.278Z,92.84
2022-09-26T10:58:13.553Z,93.01
2022-09-26T11:00:43.439Z,93.01
2022-09-26T11:03:14.051Z,93.25
2022-09-26T11:05:59.301Z,93.21
2022-09-26T11:08:37.754Z,93.23
2022-09-26T11:11:11.238Z,93.43
2022-09-26T11:13:56.195Z,93.68
2022-09-26T11:16:22.812Z,93.87
2022-09-26T11:19:21.916Z,93.80
2022-09-26T11:21:58.523Z,94.19
2022-09-26T11:24:42.591Z,94.25
2022-09-26T11:27:21.385Z,94.46
2022-09-26T11:30:03.292Z,94.27
2022-09-26T11:32:33.407Z,93.96
2022-09-26T11:35:02.926Z,94.13
2022-09-26T11:38:05.468Z,93.96
2022-09-26T11:40:47.376Z,94.31
2022-09-26T11:43:25.902Z,94.08
2022-09-26T11:45:59.035Z,94.23
2022-09-26T11:48:44.401Z,94.52
2022-09-26T11:51:31.554Z,94.39
2022-09-26T11:54:28.884Z,94.21
2022-09-26T11:57:14.665Z,94.01
2022-09-26T12:00:03.914Z,94.39
2022-09-26T12:02:56.051Z,94.51
2022-09-26T12:05:30.213Z,94.25
2022-09-26T12:08:19.145Z,94.20
2022-09-26T12:11:19.275Z,94.47
2022-09-26T12:14:04.542Z,94.27
2022-09-26T12:16:48.024Z,94.66
2022-09-26T12:19:34.447Z,94.70
2022-09-26T12:22:29.046Z,94.54
2022-09-26T12:24:56.008Z,94.56
2022-09-26T12:27:29.314Z,94.75
2022-09-26T12:30:08.578Z,94.93
2022-09-26T12:32:56.695Z,95.07
2022-09-26T12:35:41.832Z,95.38
2022-09-26T12:38:32.425Z,95.46
2022-09-26T12:41:30.934Z,95.21
2022-09-26T12:44:15.929Z,95.38
2022-09-26T12:46:51.183Z,95.60
2022-09-26T12:49:48.440Z,95.49
2022-09-26T12:52:46.050Z,95.24
2022-09-26T12:55:43.836Z,95.51
2022-09-26T12:58:31.359Z,95.72
2022-09-26T13:01:14.996Z,95.92
2022-09-26T13:03:56.694Z,95.64
2022-09-26T13:06:23.221Z,95.72
2022-09-26T13:09:08.289Z,95.74
2022-09-26T13:12:04.212Z,95.62
2022-09-26T13:15:03.588Z,96.30
2022-09-26T13:17:39.374Z,96.04
2022-09-26T13:20:19.613Z,95.94
2022-09-26T13:22:49.136Z,96.07
2022-09-26T13:25:23.680Z,96.03
2022-09-26T13:28:09.289Z,96.37
2022-09-26T13:30:50.050Z,96.16
2022-09-26T13:33:39.515Z,96.06
2022-09-26T13:36:09.761Z,96.37
2022-09-26T13:38:39.188Z,96.16
2022-09-26T13:41:47.222Z,96.71
2022-09-26T13:44:32.595Z,96.62
2022-09-26T13:47:40.704Z,96.75
2022-09-26T13:50:55.599Z,96.98
2022-09-26T13:53:28.815Z,97.17
2022-09-26T13:56:34.130Z,97.30
2022-09-26T13:59:24.237Z,97.40
2022-09-26T14:02:28.351Z,97.59
2022-09-26T14:05:00.932Z,97.55
2022-09-26T14:08:01.287Z,96.96
2022-09-26T14:10:29.207Z,96.71
2022-09-26T14:13:10.747Z,97.02
2022-09-26T14:15:59.586Z,96.70
2022-09-26T14:18:58.567Z,96.19
2022-09-26T14:21:34.620Z,95.68
2022-09-26T14:24:29.498Z,95.26
2022-09-26T14:27:11.276Z,94.99
2022-09-26T14:29:42.443Z,94.85
2022-09-26T14:32:10.165Z,94.64
2022-09-26T14:34:47.830Z,94.58
2022-09-26T14:37:26.165Z,94.71
2022-09-26T14:40:12.498Z,94.52
2022-09-26T14:42:45.023Z,94.50
2022-09-26T14:45:14.426Z,94.59
2022-09-26T14:47:55.066Z,94.82
2022-09-26T14:50:27.361Z,94.79
2022-09-26T14:52:58.082Z,94.95
2022-09-26T14:55:26.827Z,94.80
2022-09-26T14:58:16.603Z,95.27
2022-09-26T15:00:48.222Z,95.34
2022-09-26T15:03:17.823Z,95.34
2022-09-26T15:05:46.132Z,95.29
2022-09-26T15:08:27.789Z,95.40
2022-09-26T15:10:57.004Z,95.43
2022-09-26T15:13:36.161Z,95.73
2022-09-26T15:16:24.256Z,95.47
2022-09-26T15:18:55.990Z,95.97
2022-09-26T15:21:36.548Z,95.85
2022-09-26T15:24:21.711Z,96.11
2022-09-26T15:26:49.717Z,96.63
2022-09-26T15:29:17.349Z,96.66
2022-09-26T15:31:45.098Z,96.93
2022-09-26T15:34:30.587Z,97.02
2022-09-26T15:36:59.068Z,96.92
2022-09-26T15:39:44.001Z,96.61
2022-09-26T15:42:29.119Z,96.80
2022-09-26T15:45:00.716Z,96.75
2022-09-26T15:47:39.579Z,96.60
2022-09-26T15:50:12.195Z,96.34
2022-09-26T15:52:43.519Z,96.29
2022-09-26T15:55:18.256Z,96.13
2022-09-26T15:57:48.837Z,96.08
2022-09-26T16:00:16.128Z,96.15
2022-09-26T16:02:43.570Z,96.11
2022-09-26T16:05:13.186Z,96.60
2022-09-26T16:07:41.601Z,96.58
2022-09-26T16:10:32.191Z,96.77
2022-09-26T16:13:00.535Z,96.34
2022-09-26T16:15:31.070Z,96.30
2022-09-26T16:17:58.543Z,96.76
2022-09-26T16:20:29.170Z,96.88
2022-09-26T16:23:04.434Z,96.59
2022-09-26T16:25:53.490Z,96.50
2022-09-26T16:28:39.428Z,97.03
2022-09-26T16:31:08.427Z,96.96
2022-09-26T16:33:38.686Z,97.01
2022-09-26T16:36:15.245Z,96.64
2022-09-26T16:38:41.957Z,96.54
2022-09-26T16:42:00.050Z,96.51
2022-09-26T16:44:29.015Z,96.52
2022-09-26T16:47:03.082Z,96.36
2022-09-26T16:49:42.866Z,96.41
2022-09-26T16:52:38.139Z,96.07
2022-09-26T16:55:06.119Z,95.94
2022-09-26T16:57:37.170Z,96.16
2022-09-26T17:00:40.673Z,96.09
2022-09-26T17:03:27.792Z,95.95
2022-09-26T17:05:56.217Z,96.04
2022-09-26T17:08:26.564Z,95.79
2022-09-26T17:10:59.934Z,95.92
2022-09-26T17:13:28.410Z,95.95
2022-09-26T17:15:57.172Z,96.22
2022-09-26T17:18:29.632Z,96.20
2022-09-26T17:20:56.980Z,96.29
2022-09-26T17:23:39.361Z,96.40
2022-09-26T17:26:07.633Z,96.46
2022-09-26T17:28:39.285Z,96.47
2022-09-26T17:31:08.225Z,96.29
2022-09-26T17:33:40.410Z,96.66
2022-09-26T17:36:10.910Z,96.64
2022-09-26T17:38:40.328Z,96.58
2022-09-26T17:41:06.949Z,96.80
2022-09-26T17:43:34.025Z,96.69
2022-09-26T17:46:00.977Z,96.57
2022-09-26T17:48:31.380Z,96.76
2022-09-26T17:51:00.586Z,96.71
2022-09-26T17:53:36.641Z,96.26
2022-09-26T17:56:06.316Z,96.42
2022-09-26T17:58:34.242Z,96.37
2022-09-26T18:01:02.755Z,96.20
2022-09-26T18:03:33.913Z,96.33
2022-09-26T18:06:01.750Z,96.27
2022-09-26T18:08:36.195Z,96.38
2022-09-26T18:13:56.905Z,96.07
2022-09-26T18:16:24.645Z,96.10
2022-09-26T18:18:51.258Z,96.10
2022-09-26T18:21:19.069Z,96.25
2022-09-26T18:23:51.678Z,96.26
2022-09-26T18:26:28.266Z,96.10
2022-09-26T18:28:56.939Z,96.07
2022-09-26T18:31:30.778Z,96.23
2022-09-26T18:33:58.040Z,96.01
2022-09-26T18:36:26.207Z,96.31
2022-09-26T18:38:52.828Z,96.08
2022-09-26T18:41:20.833Z,96.47
2022-09-26T18:43:52.109Z,96.05
2022-09-26T18:46:19.313Z,96.32
2022-09-26T18:48:46.551Z,96.40
2022-09-26T18:51:13.653Z,96.19
2022-09-26T18:53:41.106Z,96.41
2022-09-26T18:56:28.600Z,96.29
2022-09-26T18:58:57.212Z,96.08
2022-09-26T19:01:33.080Z,96.19
2022-09-26T19:04:02.908Z,96.33
2022-09-26T19:06:37.170Z,96.21
2022-09-26T19:09:06.035Z,96.16
2022-09-26T19:11:34.518Z,96.25
2022-09-26T19:14:12.198Z,96.35
2022-09-26T19:16:38.970Z,96.42
2022-09-26T19:19:05.434Z,96.29
2022-09-26T19:24:39.498Z,96.31
2022-09-26T19:27:11.107Z,96.29
2022-09-26T19:29:44.650Z,96.35
2022-09-26T19:32:19.120Z,96.23
2022-09-26T19:34:51.219Z,96.14
2022-09-26T19:37:17.623Z,96.07
2022-09-26T19:39:44.115Z,95.97
2022-09-26T19:42:10.496Z,96.02
2022-09-26T19:44:36.874Z,95.90
2022-09-26T19:47:04.676Z,95.91
2022-09-26T19:49:32.111Z,95.90
2022-09-26T19:52:01.206Z,96.10
2022-09-26T19:54:27.674Z,95.66
2022-09-26T19:56:54.134Z,95.56
2022-09-26T19:59:24.064Z,95.24
2022-09-26T20:01:53.246Z,95.08
2022-09-26T20:04:20.042Z,95.16
2022-09-26T20:06:46.950Z,95.10
2022-09-26T20:09:16.260Z,95.30
2022-09-26T20:11:42.737Z,95.31
2022-09-26T20:14:24.730Z,95.35
2022-09-26T20:16:55.459Z,95.39
2022-09-26T20:19:28.922Z,95.13
2022-09-26T20:21:59.807Z,95.26
2022-09-26T20:24:27.712Z,94.99
2022-09-26T20:26:55.125Z,95.36
2022-09-26T20:29:21.642Z,95.28
2022-09-26T20:31:48.166Z,95.53
2022-09-26T20:34:17.195Z,95.43
2022-09-26T20:36:48.793Z,95.48
2022-09-26T20:39:25.031Z,95.59
2022-09-26T20:41:52.404Z,95.78
2022-09-26T20:44:24.621Z,95.63
2022-09-26T20:46:56.307Z,95.56
2022-09-26T20:49:33.450Z,95.53
2022-09-26T20:52:00.762Z,95.86
2022-09-26T20:54:32.601Z,95.41
2022-09-26T20:56:59.447Z,95.61
2022-09-26T20:59:26.633Z,95.82
2022-09-26T21:01:54.725Z,95.77
2022-09-26T21:04:30.018Z,95.53
2022-09-26T21:06:56.790Z,95.33
2022-09-26T21:09:23.304Z,95.32
2022-09-26T21:11:49.728Z,95.11
2022-09-26T21:14:17.210Z,95.36
2022-09-26T21:16:52.527Z,95.05
2022-09-26T21:19:22.920Z,95.13
2022-09-26T21:21:51.253Z,95.32
2022-09-26T21:24:25.463Z,95.10
2022-09-26T21:26:52.025Z,95.24
2022-09-26T21:29:18.657Z,95.15
2022-09-26T21:31:49.122Z,95.17
2022-09-26T21:34:41.885Z,95.18
2022-09-26T21:37:10.230Z,95.65
2022-09-26T21:39:38.912Z,95.60
2022-09-26T21:42:07.218Z,95.55
2022-09-26T21:44:45.293Z,95.25
2022-09-26T21:47:11.877Z,95.40
2022-09-26T21:49:38.319Z,95.27
2022-09-26T21:52:28.359Z,95.61
2022-09-26T21:54:57.394Z,95.46
2022-09-26T21:57:31.932Z,95.72
2022-09-26T21:59:58.686Z,95.47
2022-09-26T22:02:25.770Z,95.66
2022-09-26T22:04:52.789Z,95.85
2022-09-26T22:07:19.247Z,95.84
2022-09-26T22:09:45.820Z,95.58
2022-09-26T22:12:12.338Z,95.87
2022-09-26T22:14:38.745Z,95.51
2022-09-26T22:17:05.276Z,95.75
2022-09-26T22:19:35.258Z,95.78
2022-09-26T22:22:02.270Z,95.95
2022-09-26T22:24:29.062Z,96.46
2022-09-26T22:26:55.514Z,96.32
2022-09-26T22:29:21.919Z,96.15
2022-09-26T22:31:48.439Z,95.91
2022-09-26T22:34:15.127Z,95.70
2022-09-26T22:36:41.645Z,96.13
2022-09-26T22:39:08.116Z,95.70
2022-09-26T22:41:34.546Z,96.27
2022-09-26T22:44:01.253Z,95.79
2022-09-26T22:46:27.793Z,95.85
2022-09-26T22:48:54.290Z,96.11
2022-09-26T22:51:20.679Z,95.94
2022-09-26T22:53:47.089Z,95.71
2022-09-26T22:56:15.139Z,95.85
2022-09-26T22:58:44.096Z,95.54
2022-09-26T23:01:13.824Z,95.36
2022-09-26T23:03:40.974Z,95.59
2022-09-26T23:06:08.491Z,95.75
2022-09-26T23:08:35.789Z,95.63
2022-09-26T23:11:03.612Z,95.30
2022-09-26T23:13:31.985Z,95.67
2022-09-26T23:16:17.398Z,95.37
2022-09-26T23:18:44.551Z,95.91
2022-09-26T23:21:16.656Z,95.69
2022-09-26T23:23:45.510Z,95.72
2022-09-26T23:26:16.503Z,95.60
2022-09-26T23:28:42.936Z,95.62
2022-09-26T23:31:11.326Z,95.77
2022-09-26T23:33:38.376Z,95.42
2022-09-26T23:36:06.392Z,95.75
2022-09-26T23:38:33.361Z,95.82
2022-09-26T23:40:59.905Z,96.10
2022-09-26T23:43:26.421Z,95.60
2022-09-26T23:45:52.998Z,95.53
2022-09-26T23:48:19.473Z,95.90
2022-09-26T23:50:47.325Z,95.93
2022-09-26T23:53:15.145Z,95.52
2022-09-26T23:55:41.677Z,95.84
2022-09-26T23:58:08.977Z,96.16
